createdAt,value
2019-05-02T00:01:28.341Z,38.10
2019-05-02T00:03:58.588Z,41.77
2019-05-02T00:06:30.150Z,41.65
2019-05-02T00:09:03.992Z,37.33
2019-05-02T00:11:33.668Z,37.10
2019-05-02T00:14:04.210Z,38.37
2019-05-02T00:16:34.231Z,37.63
2019-05-02T00:19:04.317Z,41.47
2019-05-02T00:21:38.205Z,42.73
2019-05-02T00:24:07.601Z,42.55
2019-05-02T00:26:37.697Z,44.30
2019-05-02T00:29:07.611Z,42.53
2019-05-02T00:31:41.947Z,47.23
2019-05-02T00:34:09.318Z,41.10
2019-05-02T00:36:39.371Z,46.92
2019-05-02T00:39:13.673Z,41.27
2019-05-02T00:41:40.911Z,45.83
2019-05-02T00:44:11.242Z,43.65
2019-05-02T00:46:41.954Z,44.20
2019-05-02T00:49:12.205Z,44.37
2019-05-02T00:51:41.887Z,42.33
2019-05-02T00:54:11.539Z,42.70
2019-05-02T00:56:44.151Z,43.77
2019-05-02T00:59:12.849Z,38.80
2019-05-02T01:02:05.299Z,39.57
2019-05-02T01:04:37.599Z,43.33
2019-05-02T01:07:07.893Z,41.57
2019-05-02T01:09:42.192Z,36.23
2019-05-02T01:12:10.010Z,39.60
2019-05-02T01:14:39.739Z,41.93
2019-05-02T01:17:09.412Z,40.97
2019-05-02T01:19:39.060Z,42.40
2019-05-02T01:22:10.425Z,44.53
2019-05-02T01:24:41.679Z,44.70
2019-05-02T01:27:36.046Z,36.97
2019-05-02T01:30:21.132Z,42.87
2019-05-02T01:33:06.357Z,41.97
2019-05-02T01:35:40.533Z,43.10
2019-05-02T01:38:26.391Z,41.70
2019-05-02T01:40:54.895Z,41.85
2019-05-02T01:43:26.948Z,39.67
2019-05-02T01:45:56.667Z,38.87
2019-05-02T01:48:26.519Z,39.77
2019-05-02T01:50:56.621Z,43.93
2019-05-02T01:53:29.226Z,36.33
2019-05-02T01:55:59.349Z,43.90
2019-05-02T01:58:29.114Z,36.10
2019-05-02T02:00:59.095Z,38.98
2019-05-02T02:03:29.743Z,34.07
2019-05-02T02:06:02.916Z,33.50
2019-05-02T02:08:33.814Z,37.17
2019-05-02T02:11:03.631Z,34.93
2019-05-02T02:13:36.703Z,36.53
2019-05-02T02:16:05.995Z,36.27
2019-05-02T02:18:40.433Z,37.93
2019-05-02T02:21:20.150Z,35.10
2019-05-02T02:23:59.038Z,32.03
2019-05-02T02:26:28.848Z,35.50
2019-05-02T02:29:03.011Z,38.43
2019-05-02T02:31:31.099Z,35.60
2019-05-02T02:34:01.040Z,35.40
2019-05-02T02:36:34.189Z,38.67
2019-05-02T02:39:07.060Z,34.73
2019-05-02T02:41:34.705Z,36.25
2019-05-02T02:44:11.812Z,33.77
2019-05-02T02:46:43.523Z,35.30
2019-05-02T02:49:21.710Z,38.03
2019-05-02T02:51:44.753Z,37.87
2019-05-02T02:54:14.434Z,37.63
2019-05-02T02:56:44.165Z,37.55
2019-05-02T02:59:19.473Z,42.17
2019-05-02T03:01:45.704Z,38.47
2019-05-02T03:04:15.377Z,37.80
2019-05-02T03:06:47.142Z,42.20
2019-05-02T03:09:20.090Z,35.73
2019-05-02T03:12:07.203Z,41.83
2019-05-02T03:14:41.004Z,44.00
2019-05-02T03:17:11.676Z,39.73
2019-05-02T03:19:41.362Z,38.03
2019-05-02T03:22:11.080Z,39.63
2019-05-02T03:24:44.231Z,41.60
2019-05-02T03:27:12.677Z,42.93
2019-05-02T03:29:44.467Z,42.97
2019-05-02T03:32:30.098Z,44.97
2019-05-02T03:34:52.289Z,40.23
2019-05-02T03:37:18.239Z,41.53
2019-05-02T03:39:56.515Z,41.60
2019-05-02T03:42:19.861Z,46.73
2019-05-02T03:44:56.985Z,44.73
2019-05-02T03:47:20.976Z,42.80
2019-05-02T03:49:52.366Z,44.98
2019-05-02T03:52:22.240Z,40.40
2019-05-02T03:54:52.719Z,46.10
2019-05-02T03:57:31.994Z,42.03
2019-05-02T03:59:54.145Z,48.45
2019-05-02T04:02:24.344Z,47.70
2019-05-02T04:05:00.000Z,50.83
2019-05-02T04:07:25.615Z,47.10
2019-05-02T04:09:55.785Z,46.23
2019-05-02T04:12:26.055Z,45.93
2019-05-02T04:14:57.174Z,45.60
2019-05-02T04:17:28.636Z,51.77
2019-05-02T04:19:59.269Z,51.13
2019-05-02T04:22:29.814Z,49.23
2019-05-02T04:25:00.778Z,47.37
2019-05-02T04:27:34.176Z,50.10
2019-05-02T04:30:09.735Z,48.37
2019-05-02T04:32:33.795Z,47.38
2019-05-02T04:35:03.865Z,48.92
2019-05-02T04:37:34.342Z,50.47
2019-05-02T04:40:09.131Z,54.08
2019-05-02T04:42:39.320Z,48.33
2019-05-02T04:45:21.718Z,53.25
2019-05-02T04:47:42.606Z,53.40
2019-05-02T04:50:17.885Z,49.97
2019-05-02T04:52:48.231Z,55.63
2019-05-02T04:55:24.758Z,52.60
2019-05-02T04:57:50.508Z,55.87
2019-05-02T05:00:20.194Z,53.47
2019-05-02T05:02:53.143Z,55.63
2019-05-02T05:05:25.429Z,47.70
2019-05-02T05:07:53.814Z,52.67
2019-05-02T05:10:23.512Z,55.65
2019-05-02T05:12:53.198Z,60.90
2019-05-02T05:15:37.212Z,56.00
2019-05-02T05:17:54.474Z,53.40
2019-05-02T05:20:24.392Z,51.33
2019-05-02T05:22:54.051Z,55.60
2019-05-02T05:25:30.022Z,59.87
2019-05-02T05:28:05.713Z,58.83
2019-05-02T05:30:32.065Z,61.13
2019-05-02T05:33:01.719Z,64.60
2019-05-02T05:35:31.392Z,64.93
2019-05-02T05:38:01.053Z,56.17
2019-05-02T05:40:32.151Z,59.63
2019-05-02T05:43:07.417Z,59.88
2019-05-02T05:45:33.334Z,66.67
2019-05-02T05:48:02.992Z,55.20
2019-05-02T05:50:37.675Z,68.87
2019-05-02T05:53:04.421Z,53.90
2019-05-02T05:55:34.344Z,61.07
2019-05-02T05:58:12.334Z,67.03
2019-05-02T06:00:35.466Z,56.70
2019-05-02T06:03:13.049Z,50.80
2019-05-02T06:05:38.526Z,65.93
2019-05-02T06:08:08.229Z,66.05
2019-05-02T06:10:38.948Z,60.60
2019-05-02T06:13:10.799Z,56.90
2019-05-02T06:15:40.898Z,65.30
2019-05-02T06:18:10.624Z,64.92
2019-05-02T06:20:40.297Z,52.37
2019-05-02T06:23:09.985Z,57.50
2019-05-02T06:25:42.497Z,65.33
2019-05-02T06:28:11.251Z,61.77
2019-05-02T06:30:40.955Z,61.20
2019-05-02T06:33:10.595Z,40.38
2019-05-02T06:35:40.627Z,58.93
2019-05-02T06:38:10.285Z,39.43
2019-05-02T06:40:44.747Z,52.97
2019-05-02T06:43:11.494Z,65.08
2019-05-02T06:45:41.168Z,61.93
2019-05-02T06:48:17.167Z,66.53
2019-05-02T06:50:42.331Z,42.17
2019-05-02T06:53:11.999Z,60.80
2019-05-02T06:55:41.711Z,63.83
2019-05-02T06:58:11.371Z,57.47
2019-05-02T07:00:56.498Z,63.97
2019-05-02T07:03:12.469Z,61.53
2019-05-02T07:05:42.140Z,51.83
2019-05-02T07:08:14.022Z,55.00
2019-05-02T07:10:45.164Z,61.20
2019-05-02T07:13:15.514Z,55.13
2019-05-02T07:16:03.390Z,57.77
2019-05-02T07:18:36.505Z,56.37
2019-05-02T07:21:06.747Z,46.68
2019-05-02T07:23:36.411Z,55.70
2019-05-02T07:26:06.165Z,59.53
2019-05-02T07:28:40.342Z,50.03
2019-05-02T07:31:12.113Z,40.57
2019-05-02T07:33:39.066Z,59.83
2019-05-02T07:36:08.821Z,56.87
2019-05-02T07:38:38.562Z,60.13
2019-05-02T07:41:08.303Z,50.92
2019-05-02T07:43:38.299Z,50.50
2019-05-02T07:46:08.231Z,51.47
2019-05-02T07:48:37.897Z,51.83
2019-05-02T07:51:07.637Z,56.73
2019-05-02T07:53:37.312Z,38.78
2019-05-02T07:56:07.046Z,51.93
2019-05-02T07:58:37.976Z,51.03
2019-05-02T08:01:13.306Z,55.17
2019-05-02T08:03:39.618Z,48.03
2019-05-02T08:06:09.292Z,56.13
2019-05-02T08:08:38.966Z,57.17
2019-05-02T08:11:08.701Z,45.88
2019-05-02T08:13:38.382Z,52.03
2019-05-02T08:16:08.042Z,54.73
2019-05-02T08:18:37.716Z,54.73
2019-05-02T08:21:07.720Z,49.40
2019-05-02T08:23:37.394Z,56.67
2019-05-02T08:26:07.932Z,46.57
2019-05-02T08:28:51.973Z,51.70
2019-05-02T08:31:20.946Z,55.53
2019-05-02T08:33:50.363Z,49.93
2019-05-02T08:36:20.273Z,47.45
2019-05-02T08:38:53.571Z,45.40
2019-05-02T08:41:21.542Z,48.67
2019-05-02T08:43:51.496Z,50.87
2019-05-02T08:46:21.239Z,44.17
2019-05-02T08:48:51.980Z,38.43
2019-05-02T08:51:21.653Z,45.73
2019-05-02T08:53:52.190Z,54.43
2019-05-02T08:56:22.917Z,45.67
2019-05-02T08:58:52.536Z,49.03
2019-05-02T09:01:33.990Z,45.63
2019-05-02T09:03:56.750Z,51.88
2019-05-02T09:06:25.343Z,48.83
2019-05-02T09:08:55.021Z,46.57
2019-05-02T09:11:25.040Z,48.27
2019-05-02T09:13:54.723Z,29.50
2019-05-02T09:16:28.642Z,44.85
2019-05-02T09:18:56.282Z,37.70
2019-05-02T09:21:26.602Z,46.23
2019-05-02T09:23:57.321Z,43.40
2019-05-02T09:26:37.784Z,47.17
2019-05-02T09:29:01.633Z,47.50
2019-05-02T09:31:31.853Z,41.28
2019-05-02T09:34:02.729Z,35.73
2019-05-02T09:36:33.742Z,43.73
2019-05-02T09:39:05.108Z,47.80
2019-05-02T09:41:36.346Z,47.80
2019-05-02T09:44:08.972Z,48.73
2019-05-02T09:46:39.466Z,48.87
2019-05-02T09:49:13.819Z,47.63
2019-05-02T09:51:42.342Z,45.92
2019-05-02T09:54:12.069Z,44.67
2019-05-02T09:56:43.151Z,45.60
2019-05-02T09:59:26.841Z,47.93
2019-05-02T10:01:44.592Z,32.13
2019-05-02T10:04:14.520Z,29.53
2019-05-02T10:06:44.175Z,45.77
2019-05-02T10:09:13.862Z,40.50
2019-05-02T10:11:43.527Z,42.40
2019-05-02T10:14:13.590Z,39.47
2019-05-02T10:16:43.582Z,39.03
2019-05-02T10:19:13.635Z,26.00
2019-05-02T10:21:46.992Z,35.90
2019-05-02T10:24:14.989Z,37.13
2019-05-02T10:26:44.718Z,39.98
2019-05-02T10:29:14.398Z,42.67
2019-05-02T10:31:44.173Z,39.33
2019-05-02T10:34:17.511Z,38.15
2019-05-02T10:36:45.580Z,36.42
2019-05-02T10:39:15.973Z,31.40
2019-05-02T10:41:46.120Z,36.70
2019-05-02T10:44:16.128Z,36.93
2019-05-02T10:46:55.258Z,34.13
2019-05-02T10:49:33.035Z,33.33
2019-05-02T10:52:02.797Z,32.83
2019-05-02T10:54:36.138Z,34.38
2019-05-02T10:57:04.591Z,31.80
2019-05-02T10:59:34.270Z,29.93
2019-05-02T11:02:24.185Z,32.10
2019-05-02T11:04:57.917Z,30.33
2019-05-02T11:07:27.588Z,34.15
2019-05-02T11:10:02.349Z,29.87
2019-05-02T11:12:44.444Z,29.30
2019-05-02T11:15:26.877Z,28.20
2019-05-02T11:17:56.886Z,28.10
2019-05-02T11:20:26.992Z,24.87
2019-05-02T11:22:56.656Z,28.47
2019-05-02T11:25:26.325Z,30.53
2019-05-02T11:27:57.293Z,28.13
2019-05-02T11:30:27.375Z,34.27
2019-05-02T11:32:57.201Z,26.87
2019-05-02T11:35:27.197Z,27.47
2019-05-02T11:37:56.858Z,29.43
2019-05-02T11:40:26.539Z,35.60
2019-05-02T11:42:57.325Z,33.60
2019-05-02T11:45:27.845Z,24.80
2019-05-02T11:48:02.834Z,28.20
2019-05-02T11:50:31.880Z,31.17
2019-05-02T11:53:00.247Z,27.33
2019-05-02T11:55:31.807Z,37.93
2019-05-02T11:58:07.802Z,30.63
2019-05-02T12:00:33.657Z,30.10
2019-05-02T12:03:35.462Z,28.73
2019-05-02T12:06:02.069Z,28.33
2019-05-02T12:08:31.941Z,31.17
2019-05-02T12:11:03.733Z,30.33
2019-05-02T12:13:33.980Z,32.40
2019-05-02T12:16:08.444Z,29.37
2019-05-02T12:18:38.481Z,29.90
2019-05-02T12:21:08.254Z,32.55
2019-05-02T12:23:37.905Z,29.03
2019-05-02T12:26:07.595Z,30.40
2019-05-02T12:28:37.435Z,33.73
2019-05-02T12:31:13.244Z,29.45
2019-05-02T12:33:42.716Z,32.58
2019-05-02T12:36:12.545Z,28.43
2019-05-02T12:38:42.216Z,29.20
2019-05-02T12:41:20.322Z,33.30
2019-05-02T12:43:43.334Z,20.47
2019-05-02T12:46:13.074Z,31.12
2019-05-02T12:48:43.018Z,29.57
2019-05-02T12:51:13.184Z,36.33
2019-05-02T12:53:42.866Z,29.23
2019-05-02T12:56:12.531Z,32.23
2019-05-02T12:58:42.459Z,30.47
2019-05-02T13:01:12.355Z,29.97
2019-05-02T13:03:52.901Z,32.73
2019-05-02T13:06:22.582Z,31.60
2019-05-02T13:08:52.738Z,31.03
2019-05-02T13:11:52.318Z,28.03
2019-05-02T13:14:25.413Z,27.27
2019-05-02T13:17:01.295Z,27.58
2019-05-02T13:19:37.958Z,32.03
2019-05-02T13:22:05.301Z,28.50
2019-05-02T13:24:37.920Z,27.90
2019-05-02T13:27:12.499Z,25.47
2019-05-02T13:29:42.854Z,25.50
2019-05-02T13:32:42.719Z,23.57
2019-05-02T13:35:17.681Z,23.10
2019-05-02T13:37:48.093Z,25.55
2019-05-02T13:40:24.247Z,23.67
2019-05-02T13:42:53.911Z,24.70
2019-05-02T13:45:36.447Z,20.73
2019-05-02T13:48:06.292Z,22.40
2019-05-02T13:50:36.302Z,22.30
2019-05-02T13:53:06.043Z,20.27
2019-05-02T13:55:42.697Z,18.85
2019-05-02T13:58:12.474Z,19.67
2019-05-02T14:00:46.508Z,18.30
2019-05-02T14:03:16.625Z,17.73
2019-05-02T14:05:53.287Z,16.03
2019-05-02T14:08:35.397Z,15.50
2019-05-02T14:11:21.616Z,20.40
2019-05-02T14:13:52.185Z,24.93
2019-05-02T14:16:22.302Z,17.67
2019-05-02T14:18:53.018Z,16.02
2019-05-02T14:21:23.183Z,16.67
2019-05-02T14:23:52.993Z,16.70
2019-05-02T14:26:30.380Z,18.20
2019-05-02T14:28:54.084Z,17.27
2019-05-02T14:31:23.756Z,16.83
2019-05-02T14:34:18.438Z,16.60
2019-05-02T14:36:48.343Z,19.17
2019-05-02T14:39:18.089Z,21.07
2019-05-02T14:41:47.746Z,22.43
2019-05-02T14:44:18.011Z,21.23
2019-05-02T14:46:48.970Z,18.05
2019-05-02T14:49:22.023Z,21.00
2019-05-02T14:51:52.463Z,24.30
2019-05-02T14:54:22.972Z,19.40
2019-05-02T14:57:02.010Z,24.30
2019-05-02T14:59:32.374Z,17.77
2019-05-02T15:02:07.616Z,18.90
2019-05-02T15:04:38.307Z,18.20
2019-05-02T15:07:08.976Z,18.63
2019-05-02T15:09:38.733Z,25.72
2019-05-02T15:12:14.724Z,18.93
2019-05-02T15:14:39.878Z,17.47
2019-05-02T15:17:11.976Z,17.30
2019-05-02T15:19:42.754Z,11.80
2019-05-02T15:22:12.547Z,12.78
2019-05-02T15:24:42.422Z,13.72
2019-05-02T15:27:17.516Z,9.10
2019-05-02T15:29:43.495Z,11.17
2019-05-02T15:32:37.203Z,11.20
2019-05-02T15:35:17.622Z,7.60
2019-05-02T15:37:47.420Z,9.47
2019-05-02T15:42:52.404Z,8.70
2019-05-02T15:45:23.759Z,9.93
2019-05-02T15:47:53.770Z,11.48
2019-05-02T15:50:25.465Z,13.63
2019-05-02T15:53:03.186Z,15.40
2019-05-02T15:55:32.407Z,13.03
2019-05-02T15:58:02.611Z,14.20
2019-05-02T16:00:36.507Z,13.78
2019-05-02T16:03:06.159Z,14.90
2019-05-02T16:05:36.559Z,15.93
2019-05-02T16:08:08.784Z,19.50
2019-05-02T16:10:40.066Z,19.47
2019-05-02T16:13:13.471Z,20.32
2019-05-02T16:15:42.811Z,22.00
2019-05-02T16:18:12.839Z,19.93
2019-05-02T16:21:07.026Z,17.47
2019-05-02T16:23:35.204Z,19.98
2019-05-02T16:26:05.460Z,22.00
2019-05-02T16:28:36.913Z,22.20
2019-05-02T16:31:07.114Z,20.20
2019-05-02T16:33:36.780Z,19.85
2019-05-02T16:36:06.531Z,21.53
2019-05-02T16:38:36.288Z,20.57
2019-05-02T16:41:09.886Z,20.88
2019-05-02T16:43:38.080Z,20.55
2019-05-02T16:46:11.889Z,20.23
2019-05-02T16:48:39.319Z,21.60
2019-05-02T16:51:27.700Z,21.13
2019-05-02T16:53:40.374Z,21.60
2019-05-02T16:56:11.565Z,22.45
2019-05-02T16:58:43.374Z,21.43
2019-05-02T17:01:14.891Z,19.20
2019-05-02T17:03:44.268Z,24.57
2019-05-02T17:06:16.961Z,26.27
2019-05-02T17:08:57.436Z,23.10
2019-05-02T17:11:35.901Z,25.33
2019-05-02T17:14:07.017Z,26.33
2019-05-02T17:16:35.880Z,20.63
2019-05-02T17:19:05.703Z,24.55
2019-05-02T17:21:52.370Z,21.62
2019-05-02T17:24:06.812Z,21.30
2019-05-02T17:26:36.817Z,23.83
2019-05-02T17:29:06.736Z,26.33
2019-05-02T17:31:36.485Z,23.73
2019-05-02T17:34:06.504Z,24.43
2019-05-02T17:36:36.161Z,23.10
2019-05-02T17:39:08.332Z,24.73
2019-05-02T17:41:43.997Z,23.67
2019-05-02T17:44:12.852Z,22.87
2019-05-02T17:46:42.891Z,26.65
2019-05-02T17:49:12.614Z,23.17
2019-05-02T17:52:19.889Z,23.40
2019-05-02T17:54:47.844Z,26.77
2019-05-02T17:57:17.596Z,26.15
2019-05-02T17:59:47.278Z,26.82
2019-05-02T18:02:17.220Z,23.12
2019-05-02T18:04:54.157Z,24.70
2019-05-02T18:07:19.563Z,21.27
2019-05-02T18:09:49.244Z,25.60
2019-05-02T18:12:18.916Z,19.82
2019-05-02T18:14:51.423Z,22.07
2019-05-02T18:17:22.053Z,24.40
2019-05-02T18:19:52.124Z,21.27
2019-05-02T18:22:25.911Z,21.53
2019-05-02T18:24:53.220Z,24.15
2019-05-02T18:27:22.886Z,21.50
2019-05-02T18:29:52.591Z,25.70
2019-05-02T18:32:26.018Z,28.30
2019-05-02T18:34:56.721Z,27.60
2019-05-02T18:37:25.286Z,21.27
2019-05-02T18:39:56.018Z,19.23
2019-05-02T18:42:26.689Z,23.57
2019-05-02T18:44:56.550Z,23.33
2019-05-02T18:47:26.208Z,20.57
2019-05-02T18:50:04.282Z,21.02
2019-05-02T18:52:36.328Z,17.55
2019-05-02T18:54:59.026Z,18.20
2019-05-02T18:57:29.669Z,21.02
2019-05-02T18:59:59.448Z,19.42
2019-05-02T19:02:32.769Z,21.13
2019-05-02T19:05:01.933Z,21.10
2019-05-02T19:07:35.637Z,23.07
2019-05-02T19:10:05.765Z,18.57
2019-05-02T19:12:35.671Z,19.10
2019-05-02T19:15:07.147Z,21.27
2019-05-02T19:17:39.151Z,20.87
2019-05-02T19:20:25.959Z,18.53
2019-05-02T19:22:56.991Z,20.57
2019-05-02T19:25:27.881Z,19.20
2019-05-02T19:28:04.119Z,20.87
2019-05-02T19:30:34.491Z,20.97
2019-05-02T19:33:07.872Z,18.97
2019-05-02T19:35:37.516Z,20.27
2019-05-02T19:38:07.450Z,22.77
2019-05-02T19:40:37.406Z,17.73
2019-05-02T19:43:07.794Z,18.20
2019-05-02T19:45:37.524Z,19.33
2019-05-02T19:48:07.728Z,19.33
2019-05-02T19:50:43.735Z,18.27
2019-05-02T19:53:18.128Z,14.83
2019-05-02T19:55:43.795Z,15.53
2019-05-02T19:58:13.627Z,15.33
2019-05-02T20:00:46.248Z,14.13
2019-05-02T20:03:21.568Z,13.80
2019-05-02T20:05:48.401Z,16.50
2019-05-02T20:08:22.853Z,10.80
2019-05-02T20:10:56.714Z,19.10
2019-05-02T20:13:28.237Z,14.87
2019-05-02T20:16:05.811Z,14.50
2019-05-02T20:18:42.565Z,16.20
2019-05-02T20:21:34.981Z,14.10
2019-05-02T20:24:09.122Z,15.05
2019-05-02T20:26:36.417Z,16.13
2019-05-02T20:29:06.479Z,16.13
2019-05-02T20:31:36.415Z,14.30
2019-05-02T20:34:06.228Z,16.77
2019-05-02T20:36:36.819Z,14.98
2019-05-02T20:39:08.413Z,12.73
2019-05-02T20:41:38.393Z,12.80
2019-05-02T20:44:08.451Z,14.13
2019-05-02T20:46:38.211Z,16.40
2019-05-02T20:49:08.031Z,16.40
2019-05-02T20:51:38.031Z,17.52
2019-05-02T20:54:07.850Z,16.37
2019-05-02T20:56:37.848Z,21.43
2019-05-02T20:59:07.831Z,17.70
2019-05-02T21:01:37.646Z,17.27
2019-05-02T21:04:07.322Z,24.67
2019-05-02T21:06:49.112Z,16.30
2019-05-02T21:09:27.364Z,13.43
2019-05-02T21:12:02.039Z,15.18
2019-05-02T21:14:31.855Z,13.18
2019-05-02T21:17:02.131Z,14.60
2019-05-02T21:19:32.383Z,16.80
2019-05-02T21:22:06.103Z,16.32
2019-05-02T21:24:35.757Z,15.00
2019-05-02T21:27:05.537Z,14.57
2019-05-02T21:29:35.202Z,17.85
2019-05-02T21:32:06.006Z,18.57
2019-05-02T21:34:35.753Z,14.87
2019-05-02T21:37:05.559Z,18.57
2019-05-02T21:39:35.294Z,23.00
2019-05-02T21:42:05.092Z,17.50
2019-05-02T21:44:34.825Z,11.73
2019-05-02T21:47:05.804Z,15.20
2019-05-02T21:49:44.384Z,18.53
2019-05-02T21:52:26.898Z,16.07
2019-05-02T21:55:03.768Z,18.45
2019-05-02T21:57:33.664Z,17.03
2019-05-02T22:00:04.288Z,15.77
2019-05-02T22:02:35.559Z,16.82
2019-05-02T22:05:06.114Z,16.55
2019-05-02T22:07:35.765Z,14.90
2019-05-02T22:10:06.292Z,21.63
2019-05-02T22:12:36.020Z,19.77
2019-05-02T22:15:06.675Z,23.70
2019-05-02T22:17:36.400Z,15.50
2019-05-02T22:20:06.294Z,14.53
2019-05-02T22:22:36.029Z,15.97
2019-05-02T22:25:06.129Z,17.90
2019-05-02T22:27:35.870Z,15.40
2019-05-02T22:30:06.107Z,16.57
2019-05-02T22:32:35.851Z,17.70
2019-05-02T22:35:07.059Z,16.10
2019-05-02T22:37:38.349Z,14.60
2019-05-02T22:40:09.667Z,18.93
2019-05-02T22:42:39.325Z,23.50
2019-05-02T22:45:09.440Z,30.08
2019-05-02T22:47:39.106Z,27.43
2019-05-02T22:50:09.324Z,29.70
2019-05-02T22:52:38.982Z,24.23
2019-05-02T22:55:09.161Z,27.67
2019-05-02T22:57:41.501Z,31.03
2019-05-02T23:00:10.405Z,28.53
2019-05-02T23:02:41.973Z,29.53
2019-05-02T23:05:12.395Z,29.87
2019-05-02T23:07:42.383Z,26.48
2019-05-02T23:10:12.764Z,26.57
2019-05-02T23:12:42.478Z,30.10
2019-05-02T23:15:12.682Z,35.67
2019-05-02T23:17:42.786Z,28.87
2019-05-02T23:20:12.836Z,27.67
2019-05-02T23:22:42.586Z,32.15
2019-05-02T23:25:32.199Z,31.87
2019-05-02T23:28:07.115Z,30.23
2019-05-02T23:30:36.792Z,32.60
2019-05-02T23:33:06.467Z,30.43
2019-05-02T23:35:36.137Z,31.60
2019-05-02T23:38:05.901Z,32.33
2019-05-02T23:40:35.559Z,35.90
2019-05-02T23:43:05.236Z,34.23
2019-05-02T23:45:35.528Z,35.50
2019-05-02T23:48:05.655Z,34.80
2019-05-02T23:50:35.338Z,33.87
2019-05-02T23:53:04.989Z,33.23
2019-05-02T23:55:34.654Z,31.60
2019-05-02T23:58:04.661Z,30.70
